sensor_id;sensor_type;location;lat;lon;timestamp;pressure;altitude;pressure_sealevel;temperature;humidity
11643;BME280;5877;50.930;6.918;2023-03-14T00:02:41;98548.56;;;10.22;68.44
11643;BME280;5877;50.930;6.918;2023-03-14T00:07:34;98509.69;;;9.98;68.47
11643;BME280;5877;50.930;6.918;2023-03-14T00:12:27;98578.50;;;10.36;68.30
11643;BME280;5877;50.930;6.918;2023-03-14T00:17:18;98619.41;;;10.57;67.66
11643;BME280;5877;50.930;6.918;2023-03-14T00:22:10;98643.56;;;10.69;67.39
11643;BME280;5877;50.930;6.918;2023-03-14T00:27:02;98520.97;;;9.94;67.07
11643;BME280;5877;50.930;6.918;2023-03-14T00:31:53;98641.47;;;10.82;66.55
11643;BME280;5877;50.930;6.918;2023-03-14T00:36:45;98456.72;;;9.71;66.10
11643;BME280;5877;50.930;6.918;2023-03-14T00:41:37;98633.63;;;10.87;66.21
11643;BME280;5877;50.930;6.918;2023-03-14T00:46:29;98585.59;;;10.76;65.51
11643;BME280;5877;50.930;6.918;2023-03-14T00:51:20;98560.91;;;10.62;65.17
11643;BME280;5877;50.930;6.918;2023-03-14T00:56:12;98627.84;;;11.15;64.96
11643;BME280;5877;50.930;6.918;2023-03-14T01:01:17;98568.78;;;10.82;65.20
11643;BME280;5877;50.930;6.918;2023-03-14T01:06:21;98623.09;;;11.22;65.81
11643;BME280;5877;50.930;6.918;2023-03-14T01:11:20;98649.88;;;11.34;66.87
11643;BME280;5877;50.930;6.918;2023-03-14T01:16:13;98561.97;;;10.51;69.69
11643;BME280;5877;50.930;6.918;2023-03-14T01:21:14;98508.56;;;9.69;73.02
11643;BME280;5877;50.930;6.918;2023-03-14T01:26:11;98624.94;;;9.83;78.08
11643;BME280;5877;50.930;6.918;2023-03-14T01:31:09;98671.19;;;10.09;79.23
11643;BME280;5877;50.930;6.918;2023-03-14T01:36:03;98668.25;;;9.96;79.91
11643;BME280;5877;50.930;6.918;2023-03-14T01:40:55;98663.44;;;9.77;79.94
11643;BME280;5877;50.930;6.918;2023-03-14T01:51:08;98509.56;;;8.63;79.88
11643;BME280;5877;50.930;6.918;2023-03-14T01:56:01;98519.28;;;8.68;80.32
11643;BME280;5877;50.930;6.918;2023-03-14T02:00:57;98576.63;;;9.11;80.52
11643;BME280;5877;50.930;6.918;2023-03-14T02:05:50;98628.75;;;9.18;80.86
11643;BME280;5877;50.930;6.918;2023-03-14T02:10:46;98544.19;;;8.43;80.41
11643;BME280;5877;50.930;6.918;2023-03-14T02:15:41;98631.31;;;9.13;80.21
11643;BME280;5877;50.930;6.918;2023-03-14T02:20:53;98418.31;;;7.98;79.53
11643;BME280;5877;50.930;6.918;2023-03-14T02:25:54;98554.34;;;8.72;79.47
11643;BME280;5877;50.930;6.918;2023-03-14T02:30:49;98618.06;;;9.25;79.44
11643;BME280;5877;50.930;6.918;2023-03-14T02:35:56;98582.03;;;9.00;78.49
11643;BME280;5877;50.930;6.918;2023-03-14T02:40:49;98614.19;;;9.32;78.75
11643;BME280;5877;50.930;6.918;2023-03-14T02:45:44;98575.66;;;8.86;79.15
11643;BME280;5877;50.930;6.918;2023-03-14T02:50:40;98543.03;;;8.61;79.44
11643;BME280;5877;50.930;6.918;2023-03-14T02:55:32;98596.72;;;9.06;79.22
11643;BME280;5877;50.930;6.918;2023-03-14T03:00:30;98526.75;;;8.54;79.13
11643;BME280;5877;50.930;6.918;2023-03-14T03:05:22;98582.72;;;8.85;79.63
11643;BME280;5877;50.930;6.918;2023-03-14T03:10:14;98463.84;;;8.34;78.53
11643;BME280;5877;50.930;6.918;2023-03-14T03:15:06;98418.63;;;8.33;77.22
11643;BME280;5877;50.930;6.918;2023-03-14T03:20:00;98570.22;;;9.34;76.71
11643;BME280;5877;50.930;6.918;2023-03-14T03:24:52;98567.16;;;9.48;75.90
11643;BME280;5877;50.930;6.918;2023-03-14T03:29:44;98561.44;;;9.61;74.98
11643;BME280;5877;50.930;6.918;2023-03-14T03:34:36;98509.47;;;9.32;74.96
11643;BME280;5877;50.930;6.918;2023-03-14T03:39:28;98560.72;;;9.75;74.77
11643;BME280;5877;50.930;6.918;2023-03-14T03:44:20;98494.28;;;9.29;74.82
11643;BME280;5877;50.930;6.918;2023-03-14T03:49:12;98512.16;;;9.48;75.15
11643;BME280;5877;50.930;6.918;2023-03-14T03:54:04;98514.28;;;9.56;74.46
11643;BME280;5877;50.930;6.918;2023-03-14T03:58:57;98538.47;;;9.78;73.95
11643;BME280;5877;50.930;6.918;2023-03-14T04:03:49;98354.75;;;8.61;73.79
11643;BME280;5877;50.930;6.918;2023-03-14T04:08:42;98359.47;;;8.64;74.96
11643;BME280;5877;50.930;6.918;2023-03-14T04:13:55;98519.81;;;9.59;75.86
11643;BME280;5877;50.930;6.918;2023-03-14T04:18:47;98360.25;;;8.60;76.72
11643;BME280;5877;50.930;6.918;2023-03-14T04:23:39;98488.81;;;9.36;77.26
11643;BME280;5877;50.930;6.918;2023-03-14T04:28:32;98523.19;;;9.55;77.59
11643;BME280;5877;50.930;6.918;2023-03-14T04:33:24;98452.31;;;9.14;77.90
11643;BME280;5877;50.930;6.918;2023-03-14T04:38:17;98429.94;;;8.86;78.11
11643;BME280;5877;50.930;6.918;2023-03-14T04:43:11;98485.06;;;9.22;78.44
11643;BME280;5877;50.930;6.918;2023-03-14T04:48:10;98386.53;;;8.43;79.08
11643;BME280;5877;50.930;6.918;2023-03-14T04:53:02;98402.41;;;8.73;79.61
11643;BME280;5877;50.930;6.918;2023-03-14T04:57:54;98405.53;;;8.70;79.84
11643;BME280;5877;50.930;6.918;2023-03-14T05:02:47;98509.00;;;9.46;79.89
11643;BME280;5877;50.930;6.918;2023-03-14T05:07:52;98402.44;;;8.78;79.89
11643;BME280;5877;50.930;6.918;2023-03-14T05:12:55;98455.50;;;9.21;79.10
11643;BME280;5877;50.930;6.918;2023-03-14T05:18:11;98346.88;;;8.56;79.07
11643;BME280;5877;50.930;6.918;2023-03-14T05:23:26;98343.00;;;8.64;78.62
11643;BME280;5877;50.930;6.918;2023-03-14T05:28:21;98423.03;;;9.17;78.51
11643;BME280;5877;50.930;6.918;2023-03-14T05:33:30;98424.13;;;9.31;77.24
11643;BME280;5877;50.930;6.918;2023-03-14T05:38:38;98397.41;;;9.24;75.87
11643;BME280;5877;50.930;6.918;2023-03-14T05:43:50;98465.34;;;9.61;75.59
11643;BME280;5877;50.930;6.918;2023-03-14T05:49:00;98273.06;;;8.39;75.21
11643;BME280;5877;50.930;6.918;2023-03-14T05:54:10;98373.81;;;9.14;75.10
11643;BME280;5877;50.930;6.918;2023-03-14T05:59:17;98416.84;;;9.43;75.35
11643;BME280;5877;50.930;6.918;2023-03-14T06:04:32;98245.28;;;8.28;76.40
11643;BME280;5877;50.930;6.918;2023-03-14T06:09:24;98462.47;;;9.63;77.54
11643;BME280;5877;50.930;6.918;2023-03-14T06:14:19;98005.88;;;6.71;77.37
11643;BME280;5877;50.930;6.918;2023-03-14T06:19:13;98464.31;;;9.67;76.49
11643;BME280;5877;50.930;6.918;2023-03-14T06:24:06;97992.59;;;6.73;76.09
11643;BME280;5877;50.930;6.918;2023-03-14T06:29:04;98249.84;;;8.42;76.00
11643;BME280;5877;50.930;6.918;2023-03-14T06:33:58;98396.16;;;9.52;75.14
11643;BME280;5877;50.930;6.918;2023-03-14T06:38:53;98438.69;;;10.05;74.43
11643;BME280;5877;50.930;6.918;2023-03-14T06:43:45;98414.06;;;10.06;73.49
11643;BME280;5877;50.930;6.918;2023-03-14T06:48:37;98318.41;;;9.53;73.38
11643;BME280;5877;50.930;6.918;2023-03-14T06:53:31;98346.19;;;9.89;71.59
11643;BME280;5877;50.930;6.918;2023-03-14T06:58:25;98354.81;;;10.05;71.23
11643;BME280;5877;50.930;6.918;2023-03-14T07:03:16;98310.56;;;9.83;71.54
11643;BME280;5877;50.930;6.918;2023-03-14T07:08:12;98453.56;;;10.91;71.52
11643;BME280;5877;50.930;6.918;2023-03-14T07:13:04;98446.09;;;11.28;69.96
11643;BME280;5877;50.930;6.918;2023-03-14T07:18:00;98445.38;;;11.67;68.58
11643;BME280;5877;50.930;6.918;2023-03-14T07:22:53;98480.22;;;11.93;67.88
11643;BME280;5877;50.930;6.918;2023-03-14T07:27:56;98455.19;;;11.51;68.91
11643;BME280;5877;50.930;6.918;2023-03-14T07:32:48;98490.50;;;11.89;68.83
11643;BME280;5877;50.930;6.918;2023-03-14T07:37:40;98375.13;;;11.44;67.25
11643;BME280;5877;50.930;6.918;2023-03-14T07:42:34;98302.72;;;10.78;67.60
11643;BME280;5877;50.930;6.918;2023-03-14T07:47:40;98333.81;;;11.10;67.73
11643;BME280;5877;50.930;6.918;2023-03-14T07:52:31;98414.63;;;11.67;67.39
11643;BME280;5877;50.930;6.918;2023-03-14T07:57:23;98330.31;;;11.25;67.25
11643;BME280;5877;50.930;6.918;2023-03-14T08:02:15;98395.91;;;11.84;67.15
11643;BME280;5877;50.930;6.918;2023-03-14T08:07:07;98398.47;;;11.45;68.20
11643;BME280;5877;50.930;6.918;2023-03-14T08:11:59;98512.47;;;12.09;68.69
11643;BME280;5877;50.930;6.918;2023-03-14T08:16:51;98522.13;;;12.18;69.38
11643;BME280;5877;50.930;6.918;2023-03-14T08:21:43;98505.56;;;12.18;69.07
11643;BME280;5877;50.930;6.918;2023-03-14T08:26:34;98515.00;;;12.58;68.67
11643;BME280;5877;50.930;6.918;2023-03-14T08:31:26;98292.16;;;11.37;65.57
11643;BME280;5877;50.930;6.918;2023-03-14T08:36:20;98322.09;;;11.36;69.33
11643;BME280;5877;50.930;6.918;2023-03-14T08:41:14;98526.44;;;12.43;71.11
11643;BME280;5877;50.930;6.918;2023-03-14T08:46:06;98371.81;;;11.67;69.90
11643;BME280;5877;50.930;6.918;2023-03-14T08:51:10;98531.16;;;12.80;68.38
11643;BME280;5877;50.930;6.918;2023-03-14T08:56:04;98458.13;;;11.94;69.33
11643;BME280;5877;50.930;6.918;2023-03-14T09:00:57;98562.41;;;12.14;73.33
11643;BME280;5877;50.930;6.918;2023-03-14T09:05:50;98587.81;;;11.79;74.97
11643;BME280;5877;50.930;6.918;2023-03-14T09:10:42;98252.66;;;9.54;77.36
11643;BME280;5877;50.930;6.918;2023-03-14T09:15:34;98583.88;;;11.61;77.13
11643;BME280;5877;50.930;6.918;2023-03-14T09:20:26;98599.88;;;11.75;77.82
11643;BME280;5877;50.930;6.918;2023-03-14T09:25:18;98485.06;;;10.96;77.05
11643;BME280;5877;50.930;6.918;2023-03-14T09:30:10;98481.13;;;10.88;76.43
11643;BME280;5877;50.930;6.918;2023-03-14T09:35:02;98555.34;;;11.34;76.49
11643;BME280;5877;50.930;6.918;2023-03-14T09:39:54;98639.91;;;11.11;76.99
11643;BME280;5877;50.930;6.918;2023-03-14T09:49:45;98637.13;;;8.88;78.95
11643;BME280;5877;50.930;6.918;2023-03-14T09:54:44;98698.78;;;8.79;80.98
11643;BME280;5877;50.930;6.918;2023-03-14T09:59:37;98694.72;;;8.39;81.91
11643;BME280;5877;50.930;6.918;2023-03-14T10:04:30;98820.75;;;8.85;82.28
11643;BME280;5877;50.930;6.918;2023-03-14T10:09:24;98567.97;;;7.11;83.06
11643;BME280;5877;50.930;6.918;2023-03-14T10:14:28;98723.63;;;7.94;82.69
11643;BME280;5877;50.930;6.918;2023-03-14T10:19:20;98878.28;;;8.63;83.08
11643;BME280;5877;50.930;6.918;2023-03-14T10:24:21;98889.41;;;8.54;82.33
11643;BME280;5877;50.930;6.918;2023-03-14T10:29:13;98914.38;;;8.44;81.57
11643;BME280;5877;50.930;6.918;2023-03-14T10:34:05;98898.19;;;8.48;81.79
11643;BME280;5877;50.930;6.918;2023-03-14T10:44:15;98897.75;;;8.34;79.92
11643;BME280;5877;50.930;6.918;2023-03-14T10:49:26;98984.94;;;8.95;79.66
11643;BME280;5877;50.930;6.918;2023-03-14T10:54:22;98995.06;;;9.08;79.45
11643;BME280;5877;50.930;6.918;2023-03-14T10:59:15;99018.34;;;9.26;79.57
11643;BME280;5877;50.930;6.918;2023-03-14T11:04:43;98899.53;;;8.50;78.26
11643;BME280;5877;50.930;6.918;2023-03-14T11:09:38;98994.94;;;8.81;80.16
11643;BME280;5877;50.930;6.918;2023-03-14T11:14:36;98978.03;;;8.89;79.74
11643;BME280;5877;50.930;6.918;2023-03-14T11:35:26;99087.81;;;11.96;68.65
11643;BME280;5877;50.930;6.918;2023-03-14T11:40:31;99109.22;;;11.68;68.91
11643;BME280;5877;50.930;6.918;2023-03-14T11:45:30;99106.00;;;8.73;72.71
11643;BME280;5877;50.930;6.918;2023-03-14T11:50:27;99170.44;;;7.99;78.09
11643;BME280;5877;50.930;6.918;2023-03-14T11:55:33;98835.06;;;5.46;80.15
11643;BME280;5877;50.930;6.918;2023-03-14T12:00:26;99191.03;;;7.84;82.15
11643;BME280;5877;50.930;6.918;2023-03-14T12:10:12;99219.75;;;8.07;79.73
11643;BME280;5877;50.930;6.918;2023-03-14T12:15:05;99235.28;;;8.37;79.36
11643;BME280;5877;50.930;6.918;2023-03-14T12:20:20;99250.13;;;8.60;77.59
11643;BME280;5877;50.930;6.918;2023-03-14T12:25:24;99162.25;;;8.07;75.19
11643;BME280;5877;50.930;6.918;2023-03-14T12:30:28;99277.91;;;8.26;74.50
11643;BME280;5877;50.930;6.918;2023-03-14T12:35:44;99257.47;;;8.00;73.69
11643;BME280;5877;50.930;6.918;2023-03-14T12:40:40;99108.50;;;6.90;70.48
11643;BME280;5877;50.930;6.918;2023-03-14T12:45:36;99359.41;;;8.35;69.96
11643;BME280;5877;50.930;6.918;2023-03-14T12:55:36;99259.09;;;7.24;69.62
11643;BME280;5877;50.930;6.918;2023-03-14T13:00:33;99298.31;;;7.18;70.30
11643;BME280;5877;50.930;6.918;2023-03-14T13:05:25;99418.50;;;7.71;72.68
11643;BME280;5877;50.930;6.918;2023-03-14T13:10:25;99203.56;;;6.27;72.14
11643;BME280;5877;50.930;6.918;2023-03-14T13:15:28;99299.63;;;6.78;71.24
11643;BME280;5877;50.930;6.918;2023-03-14T13:20:31;99428.66;;;7.61;71.52
11643;BME280;5877;50.930;6.918;2023-03-14T13:25:23;99351.41;;;7.41;70.93
11643;BME280;5877;50.930;6.918;2023-03-14T13:30:16;99483.00;;;8.77;68.81
11643;BME280;5877;50.930;6.918;2023-03-14T13:40:26;99429.66;;;8.43;66.51
11643;BME280;5877;50.930;6.918;2023-03-14T13:45:19;99419.47;;;7.58;69.37
11643;BME280;5877;50.930;6.918;2023-03-14T13:50:16;99551.75;;;7.64;67.26
11643;BME280;5877;50.930;6.918;2023-03-14T13:55:18;99539.56;;;7.58;66.88
11643;BME280;5877;50.930;6.918;2023-03-14T14:00:22;99496.00;;;7.40;65.49
11643;BME280;5877;50.930;6.918;2023-03-14T14:05:15;99508.38;;;7.63;65.50
11643;BME280;5877;50.930;6.918;2023-03-14T14:10:10;99482.53;;;7.73;64.34
11643;BME280;5877;50.930;6.918;2023-03-14T14:15:10;99602.53;;;8.65;62.34
11643;BME280;5877;50.930;6.918;2023-03-14T14:20:07;99460.31;;;7.53;62.77
11643;BME280;5877;50.930;6.918;2023-03-14T14:25:00;99624.41;;;8.40;63.55
11643;BME280;5877;50.930;6.918;2023-03-14T14:29:58;99638.81;;;8.61;63.76
11643;BME280;5877;50.930;6.918;2023-03-14T14:39:45;99621.16;;;8.57;62.02
11643;BME280;5877;50.930;6.918;2023-03-14T14:44:37;99645.97;;;8.66;62.51
11643;BME280;5877;50.930;6.918;2023-03-14T14:49:31;99692.09;;;8.78;62.75
11643;BME280;5877;50.930;6.918;2023-03-14T14:54:34;99586.66;;;8.18;61.94
11643;BME280;5877;50.930;6.918;2023-03-14T14:59:27;99711.41;;;9.07;61.92
11643;BME280;5877;50.930;6.918;2023-03-14T15:04:20;99659.22;;;8.83;60.85
11643;BME280;5877;50.930;6.918;2023-03-14T15:09:12;99718.59;;;9.12;62.35
11643;BME280;5877;50.930;6.918;2023-03-14T15:14:03;99746.56;;;9.41;61.47
11643;BME280;5877;50.930;6.918;2023-03-14T15:18:59;99705.91;;;8.97;59.15
11643;BME280;5877;50.930;6.918;2023-03-14T15:23:57;99627.16;;;8.45;59.11
11643;BME280;5877;50.930;6.918;2023-03-14T15:28:48;99736.97;;;8.94;58.78
11643;BME280;5877;50.930;6.918;2023-03-14T15:33:41;99701.44;;;8.56;58.84
11643;BME280;5877;50.930;6.918;2023-03-14T15:38:33;99721.09;;;8.77;58.21
11643;BME280;5877;50.930;6.918;2023-03-14T15:43:25;99816.69;;;9.09;57.11
11643;BME280;5877;50.930;6.918;2023-03-14T15:48:20;99606.44;;;7.59;57.86
11643;BME280;5877;50.930;6.918;2023-03-14T15:53:13;99687.06;;;8.10;58.54
11643;BME280;5877;50.930;6.918;2023-03-14T15:58:05;99825.59;;;8.90;59.21
11643;BME280;5877;50.930;6.918;2023-03-14T16:02:56;99684.72;;;7.84;60.40
11643;BME280;5877;50.930;6.918;2023-03-14T16:07:48;99863.03;;;8.72;61.89
11643;BME280;5877;50.930;6.918;2023-03-14T16:12:40;99876.59;;;8.44;64.28
11643;BME280;5877;50.930;6.918;2023-03-14T16:17:33;99896.13;;;8.42;63.77
11643;BME280;5877;50.930;6.918;2023-03-14T16:22:24;99896.56;;;8.32;64.15
11643;BME280;5877;50.930;6.918;2023-03-14T16:27:16;99878.75;;;7.98;64.10
11643;BME280;5877;50.930;6.918;2023-03-14T16:32:08;99837.22;;;7.65;63.33
11643;BME280;5877;50.930;6.918;2023-03-14T16:37:00;99810.75;;;7.23;62.00
11643;BME280;5877;50.930;6.918;2023-03-14T16:41:52;99905.50;;;7.68;60.42
11643;BME280;5877;50.930;6.918;2023-03-14T16:46:49;99958.03;;;7.85;55.40
11643;BME280;5877;50.930;6.918;2023-03-14T16:51:41;99905.28;;;7.32;51.77
11643;BME280;5877;50.930;6.918;2023-03-14T16:56:33;99893.72;;;7.08;50.34
11643;BME280;5877;50.930;6.918;2023-03-14T17:01:25;99939.66;;;7.15;47.98
11643;BME280;5877;50.930;6.918;2023-03-14T17:06:23;99935.09;;;6.98;47.39
11643;BME280;5877;50.930;6.918;2023-03-14T17:11:15;99806.69;;;5.85;46.88
11643;BME280;5877;50.930;6.918;2023-03-14T17:16:07;100034.41;;;7.16;47.08
11643;BME280;5877;50.930;6.918;2023-03-14T17:21:00;100006.56;;;6.70;47.48
11643;BME280;5877;50.930;6.918;2023-03-14T17:25:52;100064.75;;;6.91;47.52
11643;BME280;5877;50.930;6.918;2023-03-14T17:30:44;99993.50;;;6.31;47.63
11643;BME280;5877;50.930;6.918;2023-03-14T17:35:36;100019.38;;;6.32;48.71
11643;BME280;5877;50.930;6.918;2023-03-14T17:40:28;99994.66;;;6.02;47.80
11643;BME280;5877;50.930;6.918;2023-03-14T17:45:20;100015.28;;;6.03;49.73
11643;BME280;5877;50.930;6.918;2023-03-14T17:50:12;100132.31;;;6.66;49.10
11643;BME280;5877;50.930;6.918;2023-03-14T17:55:05;100019.22;;;5.86;50.26
11643;BME280;5877;50.930;6.918;2023-03-14T17:59:57;100162.41;;;6.68;49.79
11643;BME280;5877;50.930;6.918;2023-03-14T18:04:50;100090.84;;;6.03;49.34
11643;BME280;5877;50.930;6.918;2023-03-14T18:09:45;100072.06;;;5.80;50.29
11643;BME280;5877;50.930;6.918;2023-03-14T18:14:37;100136.00;;;6.24;49.81
11643;BME280;5877;50.930;6.918;2023-03-14T18:19:29;100150.00;;;6.16;50.71
11643;BME280;5877;50.930;6.918;2023-03-14T18:24:21;100214.25;;;6.37;50.74
11643;BME280;5877;50.930;6.918;2023-03-14T18:29:13;100160.03;;;5.84;51.04
11643;BME280;5877;50.930;6.918;2023-03-14T18:34:04;100188.03;;;5.76;52.44
11643;BME280;5877;50.930;6.918;2023-03-14T18:38:56;100180.09;;;5.56;51.86
11643;BME280;5877;50.930;6.918;2023-03-14T18:43:49;100192.47;;;5.54;51.76
11643;BME280;5877;50.930;6.918;2023-03-14T18:48:40;100254.31;;;5.73;51.88
11643;BME280;5877;50.930;6.918;2023-03-14T18:53:33;100302.41;;;5.99;51.88
11643;BME280;5877;50.930;6.918;2023-03-14T18:58:27;100304.69;;;5.87;51.20
11643;BME280;5877;50.930;6.918;2023-03-14T19:03:19;100321.44;;;5.78;51.25
11643;BME280;5877;50.930;6.918;2023-03-14T19:08:10;100338.56;;;5.66;51.48
11643;BME280;5877;50.930;6.918;2023-03-14T19:13:05;100076.31;;;3.90;51.49
11643;BME280;5877;50.930;6.918;2023-03-14T19:17:56;100311.28;;;5.40;51.58
11643;BME280;5877;50.930;6.918;2023-03-14T19:22:48;100252.09;;;4.85;52.61
11643;BME280;5877;50.930;6.918;2023-03-14T19:27:40;100355.28;;;5.35;51.00
11643;BME280;5877;50.930;6.918;2023-03-14T19:32:32;100153.47;;;3.82;51.34
11643;BME280;5877;50.930;6.918;2023-03-14T19:37:24;100383.34;;;5.18;50.83
11643;BME280;5877;50.930;6.918;2023-03-14T19:42:16;100397.69;;;5.14;52.66
11643;BME280;5877;50.930;6.918;2023-03-14T19:47:08;100352.41;;;4.94;50.77
11643;BME280;5877;50.930;6.918;2023-03-14T19:52:00;100285.22;;;4.32;51.53
11643;BME280;5877;50.930;6.918;2023-03-14T19:56:52;100346.25;;;4.51;52.58
11643;BME280;5877;50.930;6.918;2023-03-14T20:01:43;100322.94;;;4.28;52.25
11643;BME280;5877;50.930;6.918;2023-03-14T20:06:40;100374.28;;;4.55;53.14
11643;BME280;5877;50.930;6.918;2023-03-14T20:11:35;100374.81;;;4.36;53.01
11643;BME280;5877;50.930;6.918;2023-03-14T20:16:31;100298.50;;;3.85;53.70
11643;BME280;5877;50.930;6.918;2023-03-14T20:21:26;100293.09;;;3.72;53.24
11643;BME280;5877;50.930;6.918;2023-03-14T20:26:18;100368.63;;;4.00;54.11
11643;BME280;5877;50.930;6.918;2023-03-14T20:31:09;100471.44;;;4.54;54.35
11643;BME280;5877;50.930;6.918;2023-03-14T20:36:01;100450.91;;;4.22;55.22
11643;BME280;5877;50.930;6.918;2023-03-14T20:40:58;100493.41;;;4.29;55.37
11643;BME280;5877;50.930;6.918;2023-03-14T20:45:52;100495.41;;;4.19;55.40
11643;BME280;5877;50.930;6.918;2023-03-14T20:50:45;100494.09;;;4.00;55.48
11643;BME280;5877;50.930;6.918;2023-03-14T20:55:38;100292.34;;;2.55;56.41
11643;BME280;5877;50.930;6.918;2023-03-14T21:00:30;100457.41;;;3.41;56.79
11643;BME280;5877;50.930;6.918;2023-03-14T21:05:23;100344.63;;;2.59;57.29
11643;BME280;5877;50.930;6.918;2023-03-14T21:10:15;100437.28;;;2.96;57.18
11643;BME280;5877;50.930;6.918;2023-03-14T21:15:07;100240.25;;;1.46;58.83
11643;BME280;5877;50.930;6.918;2023-03-14T21:19:59;100539.16;;;3.21;59.62
11643;BME280;5877;50.930;6.918;2023-03-14T21:24:52;100539.19;;;3.05;60.02
11643;BME280;5877;50.930;6.918;2023-03-14T21:29:43;100294.56;;;1.38;61.44
11643;BME280;5877;50.930;6.918;2023-03-14T21:34:36;100385.47;;;1.92;61.54
11643;BME280;5877;50.930;6.918;2023-03-14T21:39:29;100553.63;;;2.75;61.86
11643;BME280;5877;50.930;6.918;2023-03-14T21:44:21;100441.28;;;1.94;62.82
11643;BME280;5877;50.930;6.918;2023-03-14T21:49:14;100566.09;;;2.63;62.87
11643;BME280;5877;50.930;6.918;2023-03-14T21:54:05;100440.44;;;1.78;63.85
11643;BME280;5877;50.930;6.918;2023-03-14T21:59:01;100361.69;;;1.06;63.84
11643;BME280;5877;50.930;6.918;2023-03-14T22:03:53;100365.75;;;1.16;64.60
11643;BME280;5877;50.930;6.918;2023-03-14T22:08:45;99969.34;;;-1.65;64.29
11643;BME280;5877;50.930;6.918;2023-03-14T22:13:37;100480.38;;;1.75;64.86
11643;BME280;5877;50.930;6.918;2023-03-14T22:18:28;100567.66;;;2.15;64.96
11643;BME280;5877;50.930;6.918;2023-03-14T22:23:21;100592.78;;;2.31;65.10
11643;BME280;5877;50.930;6.918;2023-03-14T22:28:14;100597.13;;;2.22;65.84
11643;BME280;5877;50.930;6.918;2023-03-14T22:33:06;100393.53;;;0.80;66.66
11643;BME280;5877;50.930;6.918;2023-03-14T22:37:58;100543.75;;;1.71;67.84
11643;BME280;5877;50.930;6.918;2023-03-14T22:42:53;100528.16;;;1.55;69.47
11643;BME280;5877;50.930;6.918;2023-03-14T22:47:44;100357.88;;;0.50;69.66
11643;BME280;5877;50.930;6.918;2023-03-14T22:52:36;100445.19;;;1.06;70.64
11643;BME280;5877;50.930;6.918;2023-03-14T22:57:28;100525.53;;;1.47;70.83
11643;BME280;5877;50.930;6.918;2023-03-14T23:02:19;100380.53;;;0.64;70.90
11643;BME280;5877;50.930;6.918;2023-03-14T23:07:12;100631.28;;;2.26;71.21
11643;BME280;5877;50.930;6.918;2023-03-14T23:12:04;100588.78;;;1.94;71.04
11643;BME280;5877;50.930;6.918;2023-03-14T23:16:56;100585.72;;;1.99;71.16
11643;BME280;5877;50.930;6.918;2023-03-14T23:21:48;100602.94;;;2.16;71.92
11643;BME280;5877;50.930;6.918;2023-03-14T23:26:39;100535.31;;;1.69;71.50
11643;BME280;5877;50.930;6.918;2023-03-14T23:31:32;100440.88;;;1.15;72.05
11643;BME280;5877;50.930;6.918;2023-03-14T23:36:24;100551.03;;;1.76;72.16
11643;BME280;5877;50.930;6.918;2023-03-14T23:41:15;100560.78;;;1.90;71.58
11643;BME280;5877;50.930;6.918;2023-03-14T23:46:08;100622.75;;;2.34;71.38
11643;BME280;5877;50.930;6.918;2023-03-14T23:51:02;100614.34;;;2.40;71.13
11643;BME280;5877;50.930;6.918;2023-03-14T23:55:54;100548.50;;;1.92;71.14
